createdAt,value
2019-01-05T00:00:15.631Z,0.00
2019-01-05T00:03:08.470Z,0.00
2019-01-05T00:05:55.066Z,0.00
2019-01-05T00:08:45.019Z,0.00
2019-01-05T00:11:46.380Z,0.00
2019-01-05T00:14:27.407Z,0.00
2019-01-05T00:17:13.917Z,0.10
2019-01-05T00:20:08.637Z,0.00
2019-01-05T00:22:56.055Z,0.00
2019-01-05T00:25:51.889Z,0.00
2019-01-05T00:28:38.009Z,0.10
2019-01-05T00:31:23.973Z,0.10
2019-01-05T00:34:28.365Z,0.10
2019-01-05T00:37:34.518Z,0.10
2019-01-05T00:40:28.130Z,0.10
2019-01-05T00:43:14.319Z,0.00
2019-01-05T00:46:01.808Z,0.10
2019-01-05T00:48:49.649Z,0.10
2019-01-05T00:51:46.792Z,0.10
2019-01-05T00:54:49.205Z,0.20
2019-01-05T00:57:42.508Z,0.20
2019-01-05T01:00:30.676Z,0.20
2019-01-05T01:03:17.916Z,0.20
2019-01-05T01:06:03.583Z,0.20
2019-01-05T01:08:57.403Z,0.20
2019-01-05T01:11:56.734Z,0.20
2019-01-05T01:14:42.380Z,0.20
2019-01-05T01:17:44.477Z,0.20
2019-01-05T01:20:26.200Z,0.20
2019-01-05T01:23:11.735Z,0.20
2019-01-05T01:25:58.350Z,0.20
2019-01-05T01:28:58.020Z,0.30
2019-01-05T01:31:56.982Z,0.30
2019-01-05T01:34:47.198Z,0.30
2019-01-05T01:37:34.953Z,0.30
2019-01-05T01:40:15.573Z,0.40
2019-01-05T01:43:01.591Z,0.40
2019-01-05T01:45:48.370Z,0.40
2019-01-05T01:48:38.231Z,0.30
2019-01-05T01:51:32.987Z,0.30
2019-01-05T01:54:20.781Z,0.30
2019-01-05T01:57:08.137Z,0.30
2019-01-05T02:00:10.709Z,0.30
2019-01-05T02:02:58.021Z,0.30
2019-01-05T02:05:44.583Z,0.30
2019-01-05T02:08:32.745Z,0.30
2019-01-05T02:11:38.109Z,0.30
2019-01-05T02:14:25.635Z,0.30
2019-01-05T02:17:20.681Z,0.30
2019-01-05T02:21:14.803Z,0.30
2019-01-05T02:25:07.355Z,0.30
2019-01-05T02:28:48.681Z,0.30
2019-01-05T02:32:35.218Z,0.40
2019-01-05T02:36:19.629Z,0.30
2019-01-05T02:39:59.632Z,0.30
2019-01-05T02:43:39.491Z,0.30
2019-01-05T02:47:43.273Z,0.40
2019-01-05T02:51:41.837Z,0.40
2019-01-05T02:55:22.367Z,0.30
2019-01-05T02:59:07.825Z,0.40
2019-01-05T03:02:49.048Z,0.40
2019-01-05T03:06:01.405Z,0.40
2019-01-05T03:09:22.017Z,0.40
2019-01-05T03:12:49.306Z,0.50
2019-01-05T03:15:58.607Z,0.50
2019-01-05T03:20:03.945Z,0.60
2019-01-05T03:23:52.653Z,0.60
2019-01-05T03:27:35.074Z,0.60
2019-01-05T03:31:10.837Z,0.60
2019-01-05T03:34:46.263Z,0.70
2019-01-05T03:38:23.207Z,0.70
2019-01-05T03:41:37.500Z,0.80
2019-01-05T03:45:11.487Z,0.80
2019-01-05T03:48:48.921Z,0.80
2019-01-05T03:52:34.697Z,0.90
2019-01-05T03:56:38.531Z,0.90
2019-01-05T04:00:16.656Z,1.00
2019-01-05T04:03:58.463Z,1.00
2019-01-05T04:08:11.947Z,1.10
2019-01-05T04:12:10.108Z,1.10
2019-01-05T04:15:39.671Z,1.10
2019-01-05T04:19:27.539Z,1.20
2019-01-05T04:23:18.258Z,1.20
2019-01-05T04:27:03.318Z,1.30
2019-01-05T04:31:14.700Z,1.40
2019-01-05T04:34:48.180Z,1.40
2019-01-05T04:38:47.384Z,1.40
2019-01-05T04:42:18.352Z,1.50
2019-01-05T04:45:57.410Z,1.40
2019-01-05T04:49:42.465Z,1.40
2019-01-05T04:53:20.862Z,1.40
2019-01-05T04:57:09.587Z,1.40
2019-01-05T05:00:48.317Z,1.40
2019-01-05T05:04:49.212Z,1.50
2019-01-05T05:08:51.109Z,1.50
2019-01-05T05:12:32.854Z,1.50
2019-01-05T05:16:09.968Z,1.40
2019-01-05T05:19:41.289Z,1.40
2019-01-05T05:23:09.234Z,1.40
2019-01-05T05:26:58.048Z,1.40
2019-01-05T05:30:23.563Z,1.30
2019-01-05T05:34:01.222Z,1.30
2019-01-05T05:37:35.081Z,1.30
2019-01-05T05:41:31.211Z,1.30
2019-01-05T05:45:31.281Z,1.30
2019-01-05T05:49:39.682Z,1.20
2019-01-05T05:53:09.670Z,1.20
2019-01-05T05:57:15.964Z,1.20
2019-01-05T06:01:16.464Z,1.20
2019-01-05T06:05:07.713Z,1.20
2019-01-05T06:08:46.107Z,1.20
2019-01-05T06:12:56.244Z,1.20
2019-01-05T06:16:47.881Z,1.20
2019-01-05T06:20:21.927Z,1.20
2019-01-05T06:23:55.243Z,1.30
2019-01-05T06:28:10.999Z,1.30
2019-01-05T06:32:00.514Z,1.30
2019-01-05T06:35:30.943Z,1.30
2019-01-05T06:39:12.652Z,1.30
2019-01-05T06:43:12.050Z,1.40
2019-01-05T06:46:56.510Z,1.40
2019-01-05T06:50:26.017Z,1.40
2019-01-05T06:54:02.057Z,1.40
2019-01-05T06:57:46.756Z,1.50
2019-01-05T07:01:21.053Z,1.50
2019-01-05T07:05:17.199Z,1.60
2019-01-05T07:09:23.852Z,1.70
2019-01-05T07:13:08.982Z,1.70
2019-01-05T07:16:34.279Z,1.80
2019-01-05T07:20:30.862Z,1.90
2019-01-05T07:24:10.078Z,1.90
2019-01-05T07:28:04.486Z,2.00
2019-01-05T07:31:46.963Z,2.10
2019-01-05T07:35:17.050Z,2.20
2019-01-05T07:39:02.935Z,2.20
2019-01-05T07:43:09.049Z,2.20
2019-01-05T07:46:54.544Z,2.20
2019-01-05T07:50:38.783Z,2.30
2019-01-05T07:54:33.761Z,2.40
2019-01-05T07:58:00.924Z,2.40
2019-01-05T08:01:34.727Z,2.40
2019-01-05T08:06:11.340Z,2.50
2019-01-05T08:09:59.423Z,2.50
2019-01-05T08:14:00.160Z,2.60
2019-01-05T08:17:45.650Z,2.60
2019-01-05T08:21:45.988Z,2.70
2019-01-05T08:25:11.955Z,2.60
2019-01-05T08:29:05.223Z,2.70
2019-01-05T08:32:55.277Z,2.70
2019-01-05T08:36:26.541Z,2.70
2019-01-05T08:40:05.052Z,2.70
2019-01-05T08:44:18.645Z,2.80
2019-01-05T08:48:13.413Z,2.80
2019-01-05T08:52:00.891Z,2.80
2019-01-05T08:56:09.057Z,2.80
2019-01-05T08:59:43.336Z,2.80
2019-01-05T09:03:35.414Z,2.80
2019-01-05T09:07:45.555Z,2.80
2019-01-05T09:11:43.016Z,2.90
2019-01-05T09:15:26.205Z,2.80
2019-01-05T09:19:25.397Z,2.90
2019-01-05T09:23:06.152Z,2.90
2019-01-05T09:27:00.178Z,2.80
2019-01-05T09:30:34.444Z,2.80
2019-01-05T09:34:13.946Z,2.80
2019-01-05T09:38:28.820Z,2.80
2019-01-05T09:42:25.032Z,2.80
2019-01-05T09:46:47.491Z,2.90
2019-01-05T09:50:47.883Z,2.90
2019-01-05T09:54:49.169Z,3.00
2019-01-05T09:58:34.489Z,3.00
2019-01-05T10:02:27.753Z,3.00
2019-01-05T10:06:28.358Z,3.00
2019-01-05T10:10:28.213Z,3.00
2019-01-05T10:14:42.893Z,3.00
2019-01-05T10:18:26.139Z,3.00
2019-01-05T10:21:58.373Z,3.10
2019-01-05T10:25:39.237Z,3.20
2019-01-05T10:29:04.729Z,3.30
2019-01-05T10:32:49.053Z,3.30
2019-01-05T10:36:26.304Z,3.40
2019-01-05T10:40:10.939Z,3.40
2019-01-05T10:44:09.260Z,3.40
2019-01-05T10:48:14.003Z,3.50
2019-01-05T10:52:24.068Z,3.60
2019-01-05T10:56:20.040Z,3.60
2019-01-05T11:00:20.990Z,3.70
2019-01-05T11:04:10.110Z,3.70
2019-01-05T11:08:01.881Z,3.70
2019-01-05T11:11:42.607Z,3.70
2019-01-05T11:15:23.614Z,3.70
2019-01-05T11:19:05.409Z,3.70
2019-01-05T11:23:05.471Z,3.70
2019-01-05T11:26:38.878Z,3.70
2019-01-05T11:30:20.314Z,3.60
2019-01-05T11:33:55.079Z,3.60
2019-01-05T11:37:26.201Z,3.60
2019-01-05T11:41:29.537Z,3.60
2019-01-05T11:45:25.367Z,3.50
2019-01-05T11:49:38.030Z,3.50
2019-01-05T11:53:29.955Z,3.50
2019-01-05T11:57:09.032Z,3.50
2019-01-05T12:01:06.312Z,3.40
2019-01-05T12:04:46.783Z,3.40
2019-01-05T12:08:49.316Z,3.40
2019-01-05T12:12:22.644Z,3.40
2019-01-05T12:16:08.543Z,3.40
2019-01-05T12:19:39.026Z,3.40
2019-01-05T12:23:35.256Z,3.50
2019-01-05T12:27:27.142Z,3.50
2019-01-05T12:31:01.772Z,3.50
2019-01-05T12:34:30.658Z,3.40
2019-01-05T12:38:42.338Z,3.40
2019-01-05T12:42:40.321Z,3.40
2019-01-05T12:46:31.667Z,3.40
2019-01-05T12:50:11.763Z,3.40
2019-01-05T12:53:57.587Z,3.40
2019-01-05T12:57:30.663Z,3.40
2019-01-05T13:01:23.016Z,3.50
2019-01-05T13:05:16.445Z,3.50
2019-01-05T13:09:23.687Z,3.50
2019-01-05T13:13:08.058Z,3.50
2019-01-05T13:16:44.729Z,3.50
2019-01-05T13:21:03.261Z,3.40
2019-01-05T13:25:06.566Z,3.40
2019-01-05T13:29:07.519Z,3.40
2019-01-05T13:33:10.007Z,3.30
2019-01-05T13:36:37.153Z,3.40
2019-01-05T13:40:18.179Z,3.40
2019-01-05T13:44:06.340Z,3.40
2019-01-05T13:47:46.714Z,3.30
2019-01-05T13:51:44.973Z,3.30
2019-01-05T13:54:35.063Z,3.30
2019-01-05T13:57:35.018Z,3.30
2019-01-05T14:00:15.239Z,3.20
2019-01-05T14:02:57.911Z,3.20
2019-01-05T14:05:47.929Z,3.20
2019-01-05T14:08:49.858Z,3.20
2019-01-05T14:11:42.918Z,3.30
2019-01-05T14:14:28.294Z,3.30
2019-01-05T14:17:13.873Z,3.30
2019-01-05T14:19:59.562Z,3.30
2019-01-05T14:23:03.180Z,3.30
2019-01-05T14:25:58.985Z,3.30
2019-01-05T14:28:44.402Z,3.40
2019-01-05T14:31:30.020Z,3.60
2019-01-05T14:34:29.185Z,3.40
2019-01-05T14:37:14.582Z,3.40
2019-01-05T14:40:13.738Z,3.40
2019-01-05T14:43:00.961Z,3.40
2019-01-05T14:45:53.722Z,3.30
2019-01-05T14:48:39.570Z,3.30
2019-01-05T14:51:29.700Z,3.30
2019-01-05T14:54:21.539Z,3.40
2019-01-05T14:57:10.169Z,3.40
2019-01-05T14:59:55.871Z,3.40
2019-01-05T15:02:43.067Z,3.30
2019-01-05T15:05:28.760Z,3.40
2019-01-05T15:08:24.735Z,3.40
2019-01-05T15:11:06.911Z,3.30
2019-01-05T15:13:42.719Z,3.30
2019-01-05T15:16:38.620Z,3.20
2019-01-05T15:19:44.055Z,3.20
2019-01-05T15:22:24.508Z,3.10
2019-01-05T15:25:10.178Z,3.10
2019-01-05T15:28:11.007Z,3.10
2019-01-05T15:30:56.657Z,3.10
2019-01-05T15:33:42.418Z,3.10
2019-01-05T15:36:28.087Z,3.10
2019-01-05T15:39:13.665Z,3.00
2019-01-05T15:42:03.954Z,3.00
2019-01-05T15:44:53.966Z,3.00
2019-01-05T15:47:36.135Z,3.00
2019-01-05T15:50:16.438Z,3.00
2019-01-05T15:53:12.711Z,3.00
2019-01-05T15:56:13.384Z,3.10
2019-01-05T15:59:05.244Z,2.90
2019-01-05T16:01:58.239Z,3.00
2019-01-05T16:04:38.733Z,3.00
2019-01-05T16:07:37.637Z,2.90
2019-01-05T16:10:43.185Z,2.90
2019-01-05T16:13:39.455Z,2.90
2019-01-05T16:16:25.597Z,2.90
2019-01-05T16:19:11.221Z,2.90
2019-01-05T16:21:57.374Z,2.90
2019-01-05T16:24:47.293Z,2.90
2019-01-05T16:27:29.428Z,2.90
2019-01-05T16:30:16.429Z,2.90
2019-01-05T16:32:57.887Z,2.90
2019-01-05T16:36:03.024Z,2.90
2019-01-05T16:39:00.047Z,2.90
2019-01-05T16:41:52.181Z,2.90
2019-01-05T16:44:44.898Z,2.90
2019-01-05T16:47:30.415Z,2.90
2019-01-05T16:50:24.809Z,2.90
2019-01-05T16:53:26.976Z,2.90
2019-01-05T16:56:12.572Z,2.90
2019-01-05T16:58:56.283Z,2.90
2019-01-05T17:01:41.762Z,2.90
2019-01-05T17:04:27.422Z,2.90
2019-01-05T17:07:13.085Z,2.90
2019-01-05T17:10:03.090Z,2.90
2019-01-05T17:12:57.057Z,2.90
2019-01-05T17:15:40.386Z,2.90
2019-01-05T17:18:24.003Z,2.90
2019-01-05T17:21:16.442Z,2.80
2019-01-05T17:24:02.099Z,2.90
2019-01-05T17:27:01.217Z,2.90
2019-01-05T17:29:43.859Z,2.90
2019-01-05T17:32:29.422Z,2.90
2019-01-05T17:35:14.217Z,2.90
2019-01-05T17:38:04.036Z,2.90
2019-01-05T17:40:45.998Z,2.90
2019-01-05T17:43:36.792Z,2.90
2019-01-05T17:46:22.212Z,2.90
2019-01-05T17:49:08.883Z,2.80
2019-01-05T17:51:50.394Z,2.90
2019-01-05T17:54:43.236Z,2.90
2019-01-05T17:57:27.701Z,2.90
2019-01-05T18:00:19.510Z,2.80
2019-01-05T18:03:11.141Z,2.80
2019-01-05T18:05:57.157Z,2.80
2019-01-05T18:08:42.852Z,2.80
2019-01-05T18:11:31.037Z,2.70
2019-01-05T18:14:36.247Z,2.60
2019-01-05T18:17:38.567Z,2.50
2019-01-05T18:20:25.804Z,2.50
2019-01-05T18:23:21.530Z,2.50
2019-01-05T18:26:26.671Z,2.50
2019-01-05T18:29:13.690Z,2.40
2019-01-05T18:31:59.124Z,2.40
2019-01-05T18:34:43.921Z,2.40
2019-01-05T18:37:40.121Z,2.40
2019-01-05T18:40:25.956Z,2.40
2019-01-05T18:43:19.056Z,2.60
2019-01-05T18:46:04.942Z,2.50
2019-01-05T18:48:50.654Z,2.50
2019-01-05T18:51:35.792Z,2.50
2019-01-05T18:54:22.196Z,2.40
2019-01-05T18:57:08.837Z,2.50
2019-01-05T18:59:54.631Z,2.50
2019-01-05T19:02:45.239Z,2.60
2019-01-05T19:05:41.166Z,2.60
2019-01-05T19:08:22.155Z,2.70
2019-01-05T19:11:05.532Z,2.80
2019-01-05T19:13:51.386Z,2.80
2019-01-05T19:16:39.835Z,2.80
2019-01-05T19:19:25.479Z,2.80
2019-01-05T19:22:15.514Z,2.90
2019-01-05T19:25:02.684Z,2.90
2019-01-05T19:27:48.313Z,3.00
2019-01-05T19:30:53.895Z,3.00
2019-01-05T19:33:56.139Z,3.00
2019-01-05T19:37:01.879Z,2.90
2019-01-05T19:39:47.561Z,2.90
2019-01-05T19:42:46.486Z,2.80
2019-01-05T19:45:39.879Z,2.80
2019-01-05T19:48:25.892Z,2.80
2019-01-05T19:51:31.895Z,2.80
2019-01-05T19:54:13.304Z,2.80
2019-01-05T19:57:05.264Z,2.90
2019-01-05T19:59:48.815Z,2.80
2019-01-05T20:02:51.629Z,2.80
2019-01-05T20:05:53.884Z,2.80
2019-01-05T20:08:41.081Z,2.80
2019-01-05T20:11:38.672Z,2.90
2019-01-05T20:14:24.454Z,2.80
2019-01-05T20:20:24.347Z,3.00
2019-01-05T20:23:16.167Z,2.90
2019-01-05T20:26:10.921Z,3.00
2019-01-05T20:29:12.006Z,3.00
2019-01-05T20:32:15.426Z,2.90
2019-01-05T20:35:00.642Z,2.90
2019-01-05T20:37:47.191Z,2.90
2019-01-05T20:40:37.626Z,2.90
2019-01-05T20:43:28.029Z,2.90
2019-01-05T20:46:14.774Z,2.90
2019-01-05T20:49:00.668Z,2.90
2019-01-05T20:51:59.965Z,2.90
2019-01-05T20:54:45.271Z,2.90
2019-01-05T20:57:51.123Z,2.90
2019-01-05T21:00:36.301Z,2.90
2019-01-05T21:03:23.126Z,2.80
2019-01-05T21:06:13.236Z,2.80
2019-01-05T21:09:17.647Z,2.80
2019-01-05T21:12:04.878Z,2.70
2019-01-05T21:14:57.887Z,2.70
2019-01-05T21:17:43.342Z,2.70
2019-01-05T21:20:28.896Z,2.70
2019-01-05T21:23:16.960Z,2.70
2019-01-05T21:26:01.044Z,2.70
2019-01-05T21:29:00.138Z,2.70
2019-01-05T21:32:02.352Z,2.70
2019-01-05T21:35:04.439Z,2.70
2019-01-05T21:38:02.000Z,2.70
2019-01-05T21:40:48.104Z,2.80
2019-01-05T21:43:35.220Z,2.80
2019-01-05T21:46:22.500Z,2.70
2019-01-05T21:49:08.172Z,2.70
2019-01-05T21:51:58.177Z,2.70
2019-01-05T21:54:41.607Z,2.70
2019-01-05T21:57:23.236Z,2.60
2019-01-05T22:00:13.637Z,2.60
2019-01-05T22:03:12.792Z,2.60
2019-01-05T22:06:14.412Z,2.60
2019-01-05T22:08:58.148Z,2.60
2019-01-05T22:12:00.790Z,2.60
2019-01-05T22:14:56.759Z,2.50
2019-01-05T22:21:06.932Z,2.50
2019-01-05T22:23:52.981Z,2.50
2019-01-05T22:26:38.737Z,2.50
2019-01-05T22:29:35.800Z,2.50
2019-01-05T22:32:28.575Z,2.50
2019-01-05T22:35:14.412Z,2.40
2019-01-05T22:38:04.446Z,2.50
2019-01-05T22:41:03.561Z,2.40
2019-01-05T22:43:57.851Z,2.40
2019-01-05T22:46:43.843Z,2.40
2019-01-05T22:49:32.344Z,2.40
2019-01-05T22:52:18.474Z,2.40
2019-01-05T22:55:08.671Z,2.40
2019-01-05T22:58:14.474Z,2.40
2019-01-05T23:01:00.306Z,2.40
2019-01-05T23:03:47.672Z,2.40
2019-01-05T23:06:33.690Z,2.30
2019-01-05T23:09:33.050Z,2.30
2019-01-05T23:12:22.913Z,2.30
2019-01-05T23:15:10.342Z,2.30
2019-01-05T23:17:49.844Z,2.40
2019-01-05T23:20:46.143Z,2.30
2019-01-05T23:23:27.167Z,2.30
2019-01-05T23:26:13.067Z,2.30
2019-01-05T23:28:58.827Z,2.30
2019-01-05T23:31:48.746Z,2.30
2019-01-05T23:34:41.636Z,2.30
2019-01-05T23:37:26.465Z,2.30
2019-01-05T23:40:12.342Z,2.30
2019-01-05T23:42:58.180Z,2.20
2019-01-05T23:45:45.177Z,2.20
2019-01-05T23:48:35.228Z,2.30
2019-01-05T23:51:34.439Z,2.30
2019-01-05T23:54:20.688Z,2.30
2019-01-05T23:57:06.511Z,2.30
2019-01-05T23:59:50.185Z,2.30
